createdAt,value
2023-10-18T00:01:02.908Z,100778.72
2023-10-18T00:04:05.018Z,100784.81
2023-10-18T00:07:07.219Z,100782.31
2023-10-18T00:10:09.790Z,100774.50
2023-10-18T00:16:15.104Z,100766.13
2023-10-18T00:19:16.969Z,100763.56
2023-10-18T00:22:18.943Z,100765.94
2023-10-18T00:25:23.741Z,100778.19
2023-10-18T00:28:25.528Z,100783.72
2023-10-18T00:31:28.695Z,100784.38
2023-10-18T00:34:31.058Z,100774.78
2023-10-18T00:37:33.069Z,100771.06
2023-10-18T00:40:35.123Z,100770.31
2023-10-18T00:43:38.161Z,100767.41
2023-10-18T00:46:40.545Z,100766.84
2023-10-18T00:49:43.039Z,100763.22
2023-10-18T00:52:45.743Z,100756.78
2023-10-18T00:55:54.590Z,100760.19
2023-10-18T00:58:59.839Z,100762.25
2023-10-18T01:02:08.190Z,100750.59
2023-10-18T01:05:13.381Z,100742.69
2023-10-18T01:08:15.826Z,100733.06
2023-10-18T01:11:28.979Z,100732.13
2023-10-18T01:14:32.566Z,100724.63
2023-10-18T01:17:44.249Z,100734.84
2023-10-18T01:20:47.497Z,100735.91
2023-10-18T01:23:55.869Z,100734.91
2023-10-18T01:26:58.618Z,100728.13
2023-10-18T01:30:00.467Z,100728.75
2023-10-18T01:33:02.754Z,100727.47
2023-10-18T01:36:06.137Z,100723.22
2023-10-18T01:39:21.717Z,100725.38
2023-10-18T01:42:24.363Z,100741.69
2023-10-18T01:45:40.032Z,100743.63
2023-10-18T01:48:42.086Z,100729.81
2023-10-18T01:51:47.472Z,100727.28
2023-10-18T01:54:49.866Z,100728.78
2023-10-18T01:57:51.879Z,100722.63
2023-10-18T02:00:57.756Z,100728.19
2023-10-18T02:04:01.294Z,100730.44
2023-10-18T02:07:03.411Z,100732.22
2023-10-18T02:10:06.770Z,100721.13
2023-10-18T02:13:11.811Z,100721.13
2023-10-18T02:16:21.398Z,100725.31
2023-10-18T02:19:23.371Z,100728.94
2023-10-18T02:22:25.236Z,100734.47
2023-10-18T02:25:48.070Z,100736.03
2023-10-18T02:28:50.331Z,100732.72
2023-10-18T02:31:58.537Z,100736.25
2023-10-18T02:35:00.458Z,100729.94
2023-10-18T02:38:09.632Z,100726.25
2023-10-18T02:41:18.362Z,100723.09
2023-10-18T02:44:23.135Z,100733.38
2023-10-18T02:47:24.985Z,100738.84
2023-10-18T02:50:27.043Z,100743.13
2023-10-18T02:53:28.800Z,100743.13
2023-10-18T02:56:34.520Z,100741.00
2023-10-18T02:59:36.500Z,100740.00
2023-10-18T03:02:39.737Z,100735.66
2023-10-18T03:05:42.547Z,100729.41
2023-10-18T03:08:50.114Z,100733.50
2023-10-18T03:11:54.711Z,100729.25
2023-10-18T03:14:56.828Z,100730.72
2023-10-18T03:18:01.996Z,100725.94
2023-10-18T03:21:10.043Z,100723.63
2023-10-18T03:24:13.717Z,100716.44
2023-10-18T03:27:15.819Z,100721.13
2023-10-18T03:30:24.492Z,100713.63
2023-10-18T03:33:29.478Z,100719.75
2023-10-18T03:36:35.053Z,100722.31
2023-10-18T03:39:36.815Z,100711.13
2023-10-18T03:42:40.324Z,100715.03
2023-10-18T03:46:08.563Z,100714.16
2023-10-18T03:49:11.654Z,100707.19
2023-10-18T03:52:13.457Z,100709.47
2023-10-18T03:55:18.870Z,100714.66
2023-10-18T03:58:24.006Z,100716.59
2023-10-18T04:01:28.011Z,100706.16
2023-10-18T04:04:35.945Z,100712.97
2023-10-18T04:07:37.934Z,100719.03
2023-10-18T04:10:41.805Z,100712.75
2023-10-18T04:13:43.577Z,100710.09
2023-10-18T04:16:48.437Z,100718.25
2023-10-18T04:19:50.340Z,100723.28
2023-10-18T04:22:52.615Z,100720.75
2023-10-18T04:25:59.011Z,100727.28
2023-10-18T04:29:05.408Z,100722.25
2023-10-18T04:32:17.106Z,100729.53
2023-10-18T04:35:26.865Z,100726.41
2023-10-18T04:38:31.679Z,100723.97
2023-10-18T04:41:33.617Z,100722.47
2023-10-18T04:44:36.432Z,100721.53
2023-10-18T04:47:41.436Z,100727.59
2023-10-18T04:50:52.125Z,100728.22
2023-10-18T04:54:17.097Z,100722.50
2023-10-18T04:57:23.410Z,100727.47
2023-10-18T05:00:51.985Z,100732.00
2023-10-18T05:03:54.187Z,100728.88
2023-10-18T05:06:57.768Z,100729.94
2023-10-18T05:10:06.279Z,100733.66
2023-10-18T05:13:26.681Z,100732.94
2023-10-18T05:16:28.608Z,100731.84
2023-10-18T05:19:32.431Z,100738.03
2023-10-18T05:22:42.507Z,100734.41
2023-10-18T05:25:47.247Z,100748.00
2023-10-18T05:28:51.018Z,100743.25
2023-10-18T05:32:38.296Z,100757.84
2023-10-18T05:35:49.767Z,100754.03
2023-10-18T05:38:52.762Z,100745.53
2023-10-18T05:42:02.046Z,100750.81
2023-10-18T05:45:04.097Z,100747.97
2023-10-18T05:48:14.076Z,100741.41
2023-10-18T05:54:32.972Z,100737.50
2023-10-18T05:57:35.330Z,100730.72
2023-10-18T06:00:37.494Z,100731.09
2023-10-18T06:03:42.686Z,100733.41
2023-10-18T06:06:44.688Z,100744.88
2023-10-18T06:09:48.275Z,100746.34
2023-10-18T06:12:57.134Z,100752.13
2023-10-18T06:16:03.450Z,100749.06
2023-10-18T06:19:07.931Z,100757.66
2023-10-18T06:22:29.983Z,100758.72
2023-10-18T06:25:36.079Z,100756.31
2023-10-18T06:28:39.072Z,100760.94
2023-10-18T06:31:48.256Z,100757.91
2023-10-18T06:34:57.095Z,100762.47
2023-10-18T06:38:03.259Z,100762.53
2023-10-18T06:41:12.895Z,100766.34
2023-10-18T06:44:14.721Z,100761.41
2023-10-18T06:47:16.623Z,100757.59
2023-10-18T06:50:28.275Z,100753.16
2023-10-18T06:53:30.664Z,100754.56
2023-10-18T06:56:40.477Z,100753.84
2023-10-18T06:59:48.533Z,100739.72
2023-10-18T07:02:51.760Z,100740.28
2023-10-18T07:05:54.474Z,100743.38
2023-10-18T07:08:57.408Z,100746.97
2023-10-18T07:12:04.661Z,100741.03
2023-10-18T07:15:10.753Z,100739.41
2023-10-18T07:18:15.452Z,100743.56
2023-10-18T07:21:20.332Z,100745.84
2023-10-18T07:24:22.763Z,100747.16
2023-10-18T07:27:30.786Z,100747.69
2023-10-18T07:30:41.664Z,100734.03
2023-10-18T07:33:45.242Z,100734.66
2023-10-18T07:36:47.741Z,100730.78
2023-10-18T07:40:01.254Z,100733.06
2023-10-18T07:43:13.792Z,100729.13
2023-10-18T07:46:18.489Z,100720.56
2023-10-18T07:49:20.582Z,100722.91
2023-10-18T07:52:23.150Z,100715.38
2023-10-18T07:55:25.626Z,100717.47
2023-10-18T07:58:27.693Z,100711.50
2023-10-18T08:01:48.340Z,100710.84
2023-10-18T08:04:52.192Z,100700.81
2023-10-18T08:07:54.187Z,100709.78
2023-10-18T08:10:58.472Z,100713.00
2023-10-18T08:14:00.456Z,100714.34
2023-10-18T08:17:10.444Z,100699.78
2023-10-18T08:20:39.726Z,100701.69
2023-10-18T08:23:41.911Z,100696.28
2023-10-18T08:26:53.078Z,100700.06
2023-10-18T08:29:56.945Z,100694.00
2023-10-18T08:32:59.891Z,100686.91
2023-10-18T08:36:08.404Z,100701.66
2023-10-18T08:39:10.539Z,100697.94
2023-10-18T08:42:15.527Z,100687.16
2023-10-18T08:45:24.395Z,100676.75
2023-10-18T08:48:30.019Z,100676.72
2023-10-18T08:51:32.053Z,100673.09
2023-10-18T08:54:35.950Z,100668.84
2023-10-18T08:57:37.947Z,100670.09
2023-10-18T09:00:40.490Z,100670.53
2023-10-18T09:03:42.336Z,100675.56
2023-10-18T09:06:44.433Z,100665.59
2023-10-18T09:09:55.795Z,100667.47
2023-10-18T09:13:01.904Z,100664.50
2023-10-18T09:16:06.159Z,100652.19
2023-10-18T09:19:11.138Z,100653.31
2023-10-18T09:22:13.702Z,100654.50
2023-10-18T09:25:15.602Z,100661.38
2023-10-18T09:28:38.200Z,100656.97
2023-10-18T09:31:55.935Z,100653.41
2023-10-18T09:35:05.134Z,100649.84
2023-10-18T09:38:09.995Z,100653.16
2023-10-18T09:41:11.816Z,100656.44
2023-10-18T09:44:15.185Z,100636.06
2023-10-18T09:47:19.761Z,100643.72
2023-10-18T09:50:25.233Z,100630.06
2023-10-18T09:53:27.633Z,100632.53
2023-10-18T09:56:38.622Z,100635.53
2023-10-18T09:59:48.459Z,100616.50
2023-10-18T10:02:54.218Z,100616.84
2023-10-18T10:05:58.910Z,100627.91
2023-10-18T10:09:14.196Z,100617.34
2023-10-18T10:12:17.366Z,100600.00
2023-10-18T10:15:19.461Z,100597.00
2023-10-18T10:18:38.944Z,100590.28
2023-10-18T10:21:43.632Z,100592.91
2023-10-18T10:24:56.373Z,100582.50
2023-10-18T10:29:01.810Z,100578.13
2023-10-18T10:32:06.829Z,100573.97
2023-10-18T10:35:16.707Z,100569.97
2023-10-18T10:38:22.599Z,100565.16
2023-10-18T10:41:32.234Z,100563.75
2023-10-18T10:44:37.559Z,100562.44
2023-10-18T10:47:46.015Z,100558.44
2023-10-18T10:51:09.684Z,100543.06
2023-10-18T10:54:12.852Z,100554.69
2023-10-18T10:57:16.879Z,100540.59
2023-10-18T11:00:38.646Z,100540.34
2023-10-18T11:03:54.773Z,100527.47
2023-10-18T11:07:10.312Z,100528.94
2023-10-18T11:10:18.641Z,100519.28
2023-10-18T11:13:24.325Z,100514.47
2023-10-18T11:16:26.222Z,100507.47
2023-10-18T11:19:31.029Z,100521.69
2023-10-18T11:22:33.193Z,100502.16
2023-10-18T11:25:41.946Z,100504.16
2023-10-18T11:28:43.904Z,100499.69
2023-10-18T11:31:46.379Z,100487.97
2023-10-18T11:34:48.411Z,100478.81
2023-10-18T11:37:50.252Z,100480.00
2023-10-18T11:40:52.636Z,100468.53
2023-10-18T11:43:54.386Z,100452.41
2023-10-18T11:47:03.002Z,100455.06
2023-10-18T11:50:05.126Z,100467.28
2023-10-18T11:53:11.642Z,100455.63
2023-10-18T11:56:14.511Z,100454.16
2023-10-18T11:59:16.316Z,100443.25
2023-10-18T12:02:18.153Z,100444.09
2023-10-18T12:05:25.254Z,100444.97
2023-10-18T12:08:36.660Z,100441.91
2023-10-18T12:11:41.160Z,100438.75
2023-10-18T12:14:43.836Z,100431.47
2023-10-18T12:17:47.628Z,100447.13
2023-10-18T12:20:52.895Z,100426.25
2023-10-18T12:23:57.606Z,100421.50
2023-10-18T12:27:00.308Z,100426.94
2023-10-18T12:30:32.004Z,100432.63
2023-10-18T12:33:35.472Z,100411.59
2023-10-18T12:36:40.373Z,100412.94
2023-10-18T12:39:47.534Z,100407.53
2023-10-18T12:42:49.371Z,100396.22
2023-10-18T12:45:54.403Z,100399.03
2023-10-18T12:48:58.631Z,100387.03
2023-10-18T12:52:03.414Z,100385.13
2023-10-18T12:55:24.640Z,100371.50
2023-10-18T12:58:30.401Z,100369.09
2023-10-18T13:01:34.319Z,100369.09
2023-10-18T13:04:39.759Z,100363.06
2023-10-18T13:07:44.554Z,100362.16
2023-10-18T13:11:00.251Z,100360.09
2023-10-18T13:14:06.603Z,100352.19
2023-10-18T13:17:12.206Z,100348.59
2023-10-18T13:20:17.051Z,100341.28
2023-10-18T13:23:20.424Z,100348.34
2023-10-18T13:26:28.071Z,100343.53
2023-10-18T13:29:30.310Z,100339.06
2023-10-18T13:32:34.099Z,100320.16
2023-10-18T13:35:36.081Z,100312.78
2023-10-18T13:38:45.572Z,100309.69
2023-10-18T13:41:48.115Z,100311.75
2023-10-18T13:44:50.949Z,100291.44
2023-10-18T13:47:52.911Z,100309.78
2023-10-18T13:50:59.318Z,100300.69
2023-10-18T13:54:02.462Z,100296.59
2023-10-18T13:57:05.844Z,100294.50
2023-10-18T14:00:08.389Z,100285.84
2023-10-18T14:03:10.309Z,100278.59
2023-10-18T14:06:13.005Z,100263.78
2023-10-18T14:09:15.020Z,100271.50
2023-10-18T14:12:16.952Z,100265.97
2023-10-18T14:15:20.918Z,100266.88
2023-10-18T14:18:26.662Z,100265.25
2023-10-18T14:21:31.035Z,100266.56
2023-10-18T14:24:33.246Z,100259.78
2023-10-18T14:27:36.593Z,100255.13
2023-10-18T14:30:38.433Z,100260.25
2023-10-18T14:33:57.504Z,100258.81
2023-10-18T14:37:03.147Z,100250.31
2023-10-18T14:40:11.507Z,100251.25
2023-10-18T14:43:14.126Z,100238.66
2023-10-18T14:46:23.105Z,100262.63
2023-10-18T14:49:24.910Z,100263.56
2023-10-18T14:52:28.098Z,100248.44
2023-10-18T14:55:29.917Z,100248.09
2023-10-18T14:58:33.039Z,100248.25
2023-10-18T15:01:36.073Z,100243.00
2023-10-18T15:04:37.843Z,100242.19
2023-10-18T15:07:39.632Z,100247.75
2023-10-18T15:10:46.026Z,100231.94
2023-10-18T15:13:49.754Z,100245.69
2023-10-18T15:16:51.940Z,100242.50
2023-10-18T15:19:54.083Z,100254.78
2023-10-18T15:22:58.586Z,100250.34
2023-10-18T15:26:04.350Z,100248.69
2023-10-18T15:29:09.749Z,100241.28
2023-10-18T15:32:15.860Z,100245.44
2023-10-18T15:35:18.603Z,100242.38
2023-10-18T15:38:20.571Z,100241.50
2023-10-18T15:41:24.350Z,100240.97
2023-10-18T15:44:26.239Z,100245.44
2023-10-18T15:47:28.360Z,100243.16
2023-10-18T15:50:31.482Z,100234.97
2023-10-18T15:53:38.854Z,100238.09
2023-10-18T15:56:47.197Z,100241.59
2023-10-18T15:59:50.027Z,100236.84
2023-10-18T16:02:52.388Z,100238.38
2023-10-18T16:05:54.309Z,100236.94
2023-10-18T16:08:56.110Z,100232.78
2023-10-18T16:11:59.876Z,100234.84
2023-10-18T16:15:01.891Z,100229.50
2023-10-18T16:18:04.933Z,100236.94
2023-10-18T16:21:11.976Z,100227.91
2023-10-18T16:24:14.207Z,100235.09
2023-10-18T16:27:17.796Z,100225.91
2023-10-18T16:30:19.642Z,100227.19
2023-10-18T16:33:23.167Z,100228.06
2023-10-18T16:36:25.682Z,100230.09
2023-10-18T16:39:29.202Z,100221.88
2023-10-18T16:42:31.299Z,100228.59
2023-10-18T16:45:36.860Z,100222.81
2023-10-18T16:48:40.481Z,100216.31
2023-10-18T16:51:43.578Z,100215.97
2023-10-18T16:54:45.375Z,100206.22
2023-10-18T16:57:47.327Z,100207.22
2023-10-18T17:00:56.216Z,100204.59
2023-10-18T17:03:58.211Z,100196.97
2023-10-18T17:07:00.106Z,100205.16
2023-10-18T17:10:02.080Z,100205.44
2023-10-18T17:13:05.072Z,100199.22
2023-10-18T17:16:07.732Z,100200.97
2023-10-18T17:19:09.547Z,100198.31
2023-10-18T17:22:11.999Z,100191.91
2023-10-18T17:25:18.241Z,100195.47
2023-10-18T17:28:20.145Z,100184.28
2023-10-18T17:31:22.426Z,100184.28
2023-10-18T17:34:24.300Z,100183.97
2023-10-18T17:37:26.090Z,100179.81
2023-10-18T17:40:27.825Z,100184.44
2023-10-18T17:43:29.661Z,100182.50
2023-10-18T17:46:31.686Z,100170.41
2023-10-18T17:49:33.435Z,100174.66
2023-10-18T17:52:37.271Z,100170.25
2023-10-18T17:55:38.997Z,100183.44
2023-10-18T17:58:42.687Z,100171.16
2023-10-18T18:01:46.501Z,100175.19
2023-10-18T18:04:50.392Z,100165.75
2023-10-18T18:07:54.306Z,100168.81
2023-10-18T18:10:56.161Z,100170.56
2023-10-18T18:13:59.272Z,100159.94
2023-10-18T18:17:01.087Z,100165.56
2023-10-18T18:20:09.410Z,100164.00
2023-10-18T18:23:11.942Z,100155.81
2023-10-18T18:26:18.119Z,100164.28
2023-10-18T18:29:20.156Z,100160.50
2023-10-18T18:32:22.380Z,100158.06
2023-10-18T18:35:24.503Z,100163.72
2023-10-18T18:38:26.340Z,100162.72
2023-10-18T18:41:28.627Z,100168.84
2023-10-18T18:44:30.648Z,100159.44
2023-10-18T18:47:32.863Z,100153.88
2023-10-18T18:50:36.443Z,100158.13
2023-10-18T18:53:38.838Z,100151.19
2023-10-18T18:56:41.794Z,100143.38
2023-10-18T18:59:43.664Z,100146.31
2023-10-18T19:02:51.092Z,100145.81
2023-10-18T19:05:53.580Z,100143.13
2023-10-18T19:08:55.618Z,100137.50
2023-10-18T19:11:57.456Z,100139.09
2023-10-18T19:15:00.340Z,100141.31
2023-10-18T19:18:02.277Z,100147.25
2023-10-18T19:21:10.591Z,100144.09
2023-10-18T19:24:12.478Z,100144.06
2023-10-18T19:27:14.284Z,100144.41
2023-10-18T19:30:18.620Z,100148.63
2023-10-18T19:33:20.825Z,100138.91
2023-10-18T19:36:22.707Z,100134.88
2023-10-18T19:39:28.956Z,100138.03
2023-10-18T19:42:31.751Z,100134.41
2023-10-18T19:45:33.677Z,100142.19
2023-10-18T19:48:35.480Z,100122.59
2023-10-18T19:51:37.270Z,100126.47
2023-10-18T19:54:39.204Z,100126.81
2023-10-18T19:57:41.178Z,100124.13
2023-10-18T20:00:43.087Z,100130.22
2023-10-18T20:03:45.031Z,100128.91
2023-10-18T20:06:46.815Z,100130.94
2023-10-18T20:09:48.603Z,100135.78
2023-10-18T20:12:50.408Z,100130.31
2023-10-18T20:15:53.199Z,100129.16
2023-10-18T20:18:54.987Z,100128.53
2023-10-18T20:21:56.785Z,100132.63
2023-10-18T20:24:58.559Z,100131.34
2023-10-18T20:28:00.424Z,100138.88
2023-10-18T20:31:03.249Z,100135.41
2023-10-18T20:34:05.082Z,100126.72
2023-10-18T20:37:07.398Z,100120.53
2023-10-18T20:40:11.172Z,100124.94
2023-10-18T20:43:13.074Z,100125.00
2023-10-18T20:46:17.602Z,100137.59
2023-10-18T20:49:21.690Z,100127.38
2023-10-18T20:52:32.394Z,100125.06
2023-10-18T20:55:34.740Z,100135.88
2023-10-18T20:58:36.726Z,100138.66
2023-10-18T21:01:41.990Z,100140.88
2023-10-18T21:04:49.187Z,100142.00
2023-10-18T21:07:51.274Z,100135.88
2023-10-18T21:10:53.066Z,100135.03
2023-10-18T21:13:55.442Z,100130.47
2023-10-18T21:16:57.416Z,100127.91
2023-10-18T21:19:59.344Z,100121.16
2023-10-18T21:23:01.876Z,100121.72
2023-10-18T21:26:13.477Z,100110.41
2023-10-18T21:29:15.574Z,100109.78
2023-10-18T21:32:17.951Z,100093.75
2023-10-18T21:35:22.925Z,100078.19
2023-10-18T21:38:24.729Z,100072.75
2023-10-18T21:41:27.006Z,100070.63
2023-10-18T21:44:28.988Z,100078.84
2023-10-18T21:47:31.025Z,100074.78
2023-10-18T21:50:32.843Z,100066.66
2023-10-18T21:53:34.640Z,100070.94
2023-10-18T21:56:36.538Z,100052.47
2023-10-18T21:59:38.340Z,100054.63
2023-10-18T22:02:41.845Z,100054.25
2023-10-18T22:05:46.443Z,100052.34
2023-10-18T22:08:48.242Z,100035.00
2023-10-18T22:11:50.374Z,100033.56
2023-10-18T22:14:53.489Z,100030.78
2023-10-18T22:17:55.308Z,100030.91
2023-10-18T22:21:01.123Z,100030.00
2023-10-18T22:24:04.534Z,100034.16
2023-10-18T22:27:06.940Z,100032.56
2023-10-18T22:30:17.167Z,100027.53
2023-10-18T22:33:22.488Z,100022.75
2023-10-18T22:36:24.559Z,100029.34
2023-10-18T22:39:34.875Z,100012.56
2023-10-18T22:42:40.762Z,100023.03
2023-10-18T22:45:43.034Z,100003.59
2023-10-18T22:48:52.014Z,99992.66
2023-10-18T22:52:00.255Z,99990.00
2023-10-18T22:55:20.421Z,99972.47
2023-10-18T22:58:27.103Z,99962.09
2023-10-18T23:01:29.196Z,99963.44
2023-10-18T23:04:37.649Z,99969.59
2023-10-18T23:07:40.093Z,99957.25
2023-10-18T23:10:51.421Z,99953.25
2023-10-18T23:13:56.347Z,99951.06
2023-10-18T23:17:01.219Z,99965.41
2023-10-18T23:20:11.700Z,99957.47
2023-10-18T23:23:13.517Z,99955.88
2023-10-18T23:26:33.841Z,99955.09
2023-10-18T23:29:41.567Z,99948.59
2023-10-18T23:32:55.299Z,99939.63
2023-10-18T23:35:58.788Z,99934.19
2023-10-18T23:39:10.243Z,99940.31
2023-10-18T23:42:26.758Z,99938.44
2023-10-18T23:45:33.191Z,99932.78
2023-10-18T23:49:04.199Z,99929.16
2023-10-18T23:52:08.702Z,99929.16
2023-10-18T23:55:15.038Z,99929.16
2023-10-18T23:58:16.938Z,99921.97
